Terminal Aerodrome Forecast
Issued by NWS

Home | Current Version | Previous Version | Text Only | Print | Product List | Glossary On
Versions: 1 2 3 4 5 6 7 8 9 10 11 12 13 14 15 16 17 18 19 20 21 22 23 24 25 26 27 28 29 30
000
FTUS41 KBUF 180545
TAFIAG
TAF
KIAG 180545Z 1806/1906 23024G33KT P6SM BKN015
     FM180800 23021G30KT P6SM SCT250
     FM181300 24018G25KT P6SM VCSH BKN025
     FM190000 24013KT P6SM BKN020
     FM190300 24013KT 2SM -SN OVC015=

USA.gov is the U.S. government's official web portal to all federal, state and local government web resources and services.